sensor_id;sensor_type;location;lat;lon;timestamp;pressure;altitude;pressure_sealevel;temperature;humidity
19128;BME280;9696;53.686;10.094;2023-10-19T00:01:17;100131.81;;;7.84;100.00
19128;BME280;9696;53.686;10.094;2023-10-19T00:03:48;100122.97;;;7.75;100.00
19128;BME280;9696;53.686;10.094;2023-10-19T00:06:17;100130.38;;;7.70;100.00
19128;BME280;9696;53.686;10.094;2023-10-19T00:08:46;100114.72;;;7.70;100.00
19128;BME280;9696;53.686;10.094;2023-10-19T00:11:15;100112.69;;;7.74;100.00
19128;BME280;9696;53.686;10.094;2023-10-19T00:13:51;100110.75;;;7.76;100.00
19128;BME280;9696;53.686;10.094;2023-10-19T00:16:22;100088.66;;;7.80;100.00
19128;BME280;9696;53.686;10.094;2023-10-19T00:18:59;100090.22;;;7.92;100.00
19128;BME280;9696;53.686;10.094;2023-10-19T00:21:27;100092.38;;;7.87;100.00
19128;BME280;9696;53.686;10.094;2023-10-19T00:23:58;100085.22;;;7.79;100.00
19128;BME280;9696;53.686;10.094;2023-10-19T00:26:32;100074.25;;;7.85;100.00
19128;BME280;9696;53.686;10.094;2023-10-19T00:29:02;100073.44;;;7.85;100.00
19128;BME280;9696;53.686;10.094;2023-10-19T00:31:42;100063.94;;;7.84;100.00
19128;BME280;9696;53.686;10.094;2023-10-19T00:34:13;100069.72;;;7.87;100.00
19128;BME280;9696;53.686;10.094;2023-10-19T00:36:43;100058.88;;;7.92;100.00
19128;BME280;9696;53.686;10.094;2023-10-19T00:39:13;100051.47;;;7.97;100.00
19128;BME280;9696;53.686;10.094;2023-10-19T00:41:48;100058.59;;;7.85;100.00
19128;BME280;9696;53.686;10.094;2023-10-19T00:44:18;100057.75;;;7.85;100.00
19128;BME280;9696;53.686;10.094;2023-10-19T00:46:56;100058.16;;;7.80;100.00
19128;BME280;9696;53.686;10.094;2023-10-19T00:49:32;100045.78;;;7.82;100.00
19128;BME280;9696;53.686;10.094;2023-10-19T00:52:03;100051.28;;;7.79;100.00
19128;BME280;9696;53.686;10.094;2023-10-19T00:54:41;100042.03;;;7.75;100.00
19128;BME280;9696;53.686;10.094;2023-10-19T00:57:19;100040.81;;;7.70;100.00
19128;BME280;9696;53.686;10.094;2023-10-19T00:59:50;100040.38;;;7.65;100.00
19128;BME280;9696;53.686;10.094;2023-10-19T01:02:22;100038.03;;;7.71;100.00
19128;BME280;9696;53.686;10.094;2023-10-19T01:04:59;100034.38;;;7.74;100.00
19128;BME280;9696;53.686;10.094;2023-10-19T01:07:30;100028.44;;;7.72;100.00
19128;BME280;9696;53.686;10.094;2023-10-19T01:10:03;100024.97;;;7.62;100.00
19128;BME280;9696;53.686;10.094;2023-10-19T01:12:33;100025.25;;;7.68;100.00
19128;BME280;9696;53.686;10.094;2023-10-19T01:15:09;100018.81;;;7.72;100.00
19128;BME280;9696;53.686;10.094;2023-10-19T01:17:42;100021.88;;;7.77;100.00
19128;BME280;9696;53.686;10.094;2023-10-19T01:20:14;62107.28;;;-141.04;100.00
19128;BME280;9696;53.686;10.094;2023-10-19T01:22:51;62107.28;;;-141.04;100.00
19128;BME280;9696;53.686;10.094;2023-10-19T01:25:42;62107.28;;;-141.04;100.00
19128;BME280;9696;53.686;10.094;2023-10-19T01:28:18;62107.28;;;-141.04;100.00
19128;BME280;9696;53.686;10.094;2023-10-19T01:30:47;99996.72;;;7.76;100.00
19128;BME280;9696;53.686;10.094;2023-10-19T01:33:20;99987.66;;;7.80;100.00
19128;BME280;9696;53.686;10.094;2023-10-19T01:35:52;99981.06;;;7.76;100.00
19128;BME280;9696;53.686;10.094;2023-10-19T01:38:41;99979.56;;;7.83;100.00
19128;BME280;9696;53.686;10.094;2023-10-19T01:41:10;99962.00;;;7.85;100.00
19128;BME280;9696;53.686;10.094;2023-10-19T01:43:46;99961.16;;;7.85;100.00
19128;BME280;9696;53.686;10.094;2023-10-19T01:46:16;99964.44;;;7.87;100.00
19128;BME280;9696;53.686;10.094;2023-10-19T01:48:53;99956.75;;;7.85;100.00
19128;BME280;9696;53.686;10.094;2023-10-19T01:51:23;99952.09;;;7.89;100.00
19128;BME280;9696;53.686;10.094;2023-10-19T01:53:56;99940.28;;;7.94;100.00
19128;BME280;9696;53.686;10.094;2023-10-19T01:56:24;99933.66;;;7.90;100.00
19128;BME280;9696;53.686;10.094;2023-10-19T01:58:54;99939.72;;;7.91;100.00
19128;BME280;9696;53.686;10.094;2023-10-19T02:01:23;99938.50;;;7.95;100.00
19128;BME280;9696;53.686;10.094;2023-10-19T02:03:59;99936.56;;;8.06;100.00
19128;BME280;9696;53.686;10.094;2023-10-19T02:06:30;99933.16;;;7.96;100.00
19128;BME280;9696;53.686;10.094;2023-10-19T02:09:07;99925.84;;;8.00;100.00
19128;BME280;9696;53.686;10.094;2023-10-19T02:11:47;99915.41;;;8.00;100.00
19128;BME280;9696;53.686;10.094;2023-10-19T02:14:17;99904.69;;;8.03;100.00
19128;BME280;9696;53.686;10.094;2023-10-19T02:16:48;99901.53;;;7.99;100.00
19128;BME280;9696;53.686;10.094;2023-10-19T02:19:21;99898.91;;;7.99;100.00
19128;BME280;9696;53.686;10.094;2023-10-19T02:21:52;99892.59;;;7.92;100.00
19128;BME280;9696;53.686;10.094;2023-10-19T02:24:22;99882.00;;;8.03;100.00
19128;BME280;9696;53.686;10.094;2023-10-19T02:26:54;99889.00;;;8.03;100.00
19128;BME280;9696;53.686;10.094;2023-10-19T02:29:23;99887.91;;;7.96;100.00
19128;BME280;9696;53.686;10.094;2023-10-19T02:31:55;99893.28;;;7.94;100.00
19128;BME280;9696;53.686;10.094;2023-10-19T02:34:25;99890.13;;;8.00;100.00
19128;BME280;9696;53.686;10.094;2023-10-19T02:36:53;99896.31;;;7.99;100.00
19128;BME280;9696;53.686;10.094;2023-10-19T02:39:24;99905.22;;;7.87;100.00
19128;BME280;9696;53.686;10.094;2023-10-19T02:41:56;99901.41;;;8.01;100.00
19128;BME280;9696;53.686;10.094;2023-10-19T02:44:24;99901.41;;;8.01;100.00
19128;BME280;9696;53.686;10.094;2023-10-19T02:46:55;99896.31;;;7.90;100.00
19128;BME280;9696;53.686;10.094;2023-10-19T02:49:28;99902.34;;;8.00;100.00
19128;BME280;9696;53.686;10.094;2023-10-19T02:51:58;99885.59;;;8.12;100.00
19128;BME280;9696;53.686;10.094;2023-10-19T02:54:33;99889.69;;;8.15;100.00
19128;BME280;9696;53.686;10.094;2023-10-19T02:57:03;99895.78;;;8.25;100.00
19128;BME280;9696;53.686;10.094;2023-10-19T02:59:35;99895.09;;;8.13;100.00
19128;BME280;9696;53.686;10.094;2023-10-19T03:02:05;99900.03;;;8.16;100.00
19128;BME280;9696;53.686;10.094;2023-10-19T03:04:36;99897.16;;;8.10;100.00
19128;BME280;9696;53.686;10.094;2023-10-19T03:07:06;99898.66;;;8.12;100.00
19128;BME280;9696;53.686;10.094;2023-10-19T03:09:36;99892.31;;;8.15;100.00
19128;BME280;9696;53.686;10.094;2023-10-19T03:12:06;99892.31;;;8.15;100.00
19128;BME280;9696;53.686;10.094;2023-10-19T03:14:38;99892.31;;;8.15;100.00
19128;BME280;9696;53.686;10.094;2023-10-19T03:17:09;99892.31;;;8.15;100.00
19128;BME280;9696;53.686;10.094;2023-10-19T03:19:38;99892.31;;;8.15;100.00
19128;BME280;9696;53.686;10.094;2023-10-19T03:22:07;62107.28;;;-141.04;100.00
19128;BME280;9696;53.686;10.094;2023-10-19T03:24:38;62107.28;;;-141.04;100.00
19128;BME280;9696;53.686;10.094;2023-10-19T03:27:10;62107.28;;;-141.04;100.00
19128;BME280;9696;53.686;10.094;2023-10-19T03:29:42;62107.28;;;-141.04;100.00
19128;BME280;9696;53.686;10.094;2023-10-19T03:32:15;62107.28;;;-141.04;100.00
19128;BME280;9696;53.686;10.094;2023-10-19T03:34:45;62107.28;;;-141.04;100.00
19128;BME280;9696;53.686;10.094;2023-10-19T03:37:16;62107.28;;;-141.04;100.00
19128;BME280;9696;53.686;10.094;2023-10-19T03:39:50;62107.28;;;-141.04;100.00
19128;BME280;9696;53.686;10.094;2023-10-19T03:42:19;62107.28;;;-141.04;100.00
19128;BME280;9696;53.686;10.094;2023-10-19T03:44:53;62107.28;;;-141.04;100.00
19128;BME280;9696;53.686;10.094;2023-10-19T03:47:23;62107.28;;;-141.04;100.00
19128;BME280;9696;53.686;10.094;2023-10-19T03:49:56;62107.28;;;-141.04;100.00
19128;BME280;9696;53.686;10.094;2023-10-19T03:52:28;62107.28;;;-141.04;100.00
19128;BME280;9696;53.686;10.094;2023-10-19T03:55:00;62107.28;;;-141.04;100.00
19128;BME280;9696;53.686;10.094;2023-10-19T03:57:29;62107.28;;;-141.04;100.00
19128;BME280;9696;53.686;10.094;2023-10-19T03:59:59;62107.28;;;-141.04;100.00
19128;BME280;9696;53.686;10.094;2023-10-19T04:02:28;62107.28;;;-141.04;100.00
19128;BME280;9696;53.686;10.094;2023-10-19T04:05:03;62107.28;;;-141.04;100.00
19128;BME280;9696;53.686;10.094;2023-10-19T04:07:33;62107.28;;;-141.04;100.00
19128;BME280;9696;53.686;10.094;2023-10-19T04:10:04;62107.28;;;-141.04;100.00
19128;BME280;9696;53.686;10.094;2023-10-19T04:12:52;62107.28;;;-141.04;100.00
19128;BME280;9696;53.686;10.094;2023-10-19T04:15:22;62107.28;;;-141.04;100.00
19128;BME280;9696;53.686;10.094;2023-10-19T04:17:54;62107.28;;;-141.04;100.00
19128;BME280;9696;53.686;10.094;2023-10-19T04:20:26;62107.28;;;-141.04;100.00
19128;BME280;9696;53.686;10.094;2023-10-19T04:22:58;62107.28;;;-141.04;100.00
19128;BME280;9696;53.686;10.094;2023-10-19T04:25:35;62107.28;;;-141.04;100.00
19128;BME280;9696;53.686;10.094;2023-10-19T04:28:05;62107.28;;;-141.04;100.00
19128;BME280;9696;53.686;10.094;2023-10-19T04:30:34;62107.28;;;-141.04;100.00
19128;BME280;9696;53.686;10.094;2023-10-19T04:33:05;62107.28;;;-141.04;100.00
19128;BME280;9696;53.686;10.094;2023-10-19T04:35:38;62107.28;;;-141.04;100.00
19128;BME280;9696;53.686;10.094;2023-10-19T04:38:09;62107.28;;;-141.04;100.00
19128;BME280;9696;53.686;10.094;2023-10-19T04:40:39;62107.28;;;-141.04;100.00
19128;BME280;9696;53.686;10.094;2023-10-19T04:43:09;62107.28;;;-141.04;100.00
19128;BME280;9696;53.686;10.094;2023-10-19T04:45:40;62107.28;;;-141.04;100.00
19128;BME280;9696;53.686;10.094;2023-10-19T04:48:09;62107.28;;;-141.04;100.00
19128;BME280;9696;53.686;10.094;2023-10-19T04:50:38;62107.28;;;-141.04;100.00
19128;BME280;9696;53.686;10.094;2023-10-19T04:53:07;62107.28;;;-141.04;100.00
19128;BME280;9696;53.686;10.094;2023-10-19T04:55:36;62107.28;;;-141.04;100.00
19128;BME280;9696;53.686;10.094;2023-10-19T04:58:07;62107.28;;;-141.04;100.00
19128;BME280;9696;53.686;10.094;2023-10-19T05:00:38;62107.28;;;-141.04;100.00
19128;BME280;9696;53.686;10.094;2023-10-19T05:03:07;62107.28;;;-141.04;100.00
19128;BME280;9696;53.686;10.094;2023-10-19T05:05:37;62107.28;;;-141.04;100.00
19128;BME280;9696;53.686;10.094;2023-10-19T05:08:06;62107.28;;;-141.04;100.00
19128;BME280;9696;53.686;10.094;2023-10-19T05:10:37;62107.28;;;-141.04;100.00
19128;BME280;9696;53.686;10.094;2023-10-19T05:13:08;62107.28;;;-141.04;100.00
19128;BME280;9696;53.686;10.094;2023-10-19T05:15:38;62107.28;;;-141.04;100.00
19128;BME280;9696;53.686;10.094;2023-10-19T05:18:07;99892.31;;;8.15;100.00
19128;BME280;9696;53.686;10.094;2023-10-19T05:20:36;99892.31;;;8.15;100.00
19128;BME280;9696;53.686;10.094;2023-10-19T05:23:08;99792.75;;;7.02;100.00
19128;BME280;9696;53.686;10.094;2023-10-19T05:25:37;99793.41;;;7.04;100.00
19128;BME280;9696;53.686;10.094;2023-10-19T05:28:08;99793.41;;;7.04;100.00
19128;BME280;9696;53.686;10.094;2023-10-19T05:30:37;99793.41;;;7.04;100.00
19128;BME280;9696;53.686;10.094;2023-10-19T05:33:06;99793.41;;;7.04;100.00
19128;BME280;9696;53.686;10.094;2023-10-19T05:35:36;99784.94;;;7.02;100.00
19128;BME280;9696;53.686;10.094;2023-10-19T05:38:08;99789.53;;;6.89;100.00
19128;BME280;9696;53.686;10.094;2023-10-19T05:40:37;62107.28;;;-141.04;100.00
19128;BME280;9696;53.686;10.094;2023-10-19T05:43:08;62107.28;;;-141.04;100.00
19128;BME280;9696;53.686;10.094;2023-10-19T05:45:37;62107.28;;;-141.04;100.00
19128;BME280;9696;53.686;10.094;2023-10-19T05:48:08;62107.28;;;-141.04;100.00
19128;BME280;9696;53.686;10.094;2023-10-19T05:50:39;62107.28;;;-141.04;100.00
19128;BME280;9696;53.686;10.094;2023-10-19T05:53:10;62107.28;;;-141.04;100.00
19128;BME280;9696;53.686;10.094;2023-10-19T05:55:39;62107.28;;;-141.04;100.00
19128;BME280;9696;53.686;10.094;2023-10-19T05:58:10;62107.28;;;-141.04;100.00
19128;BME280;9696;53.686;10.094;2023-10-19T06:00:40;62107.28;;;-141.04;100.00
19128;BME280;9696;53.686;10.094;2023-10-19T06:03:09;62107.28;;;-141.04;100.00
19128;BME280;9696;53.686;10.094;2023-10-19T06:05:39;62107.28;;;-141.04;100.00
19128;BME280;9696;53.686;10.094;2023-10-19T06:08:08;62107.28;;;-141.04;100.00
19128;BME280;9696;53.686;10.094;2023-10-19T06:10:37;62107.28;;;-141.04;100.00
19128;BME280;9696;53.686;10.094;2023-10-19T06:13:07;62107.28;;;-141.04;100.00
19128;BME280;9696;53.686;10.094;2023-10-19T06:15:39;62107.28;;;-141.04;100.00
19128;BME280;9696;53.686;10.094;2023-10-19T06:18:10;62107.28;;;-141.04;100.00
19128;BME280;9696;53.686;10.094;2023-10-19T06:20:43;62107.28;;;-141.04;100.00
19128;BME280;9696;53.686;10.094;2023-10-19T06:23:13;62107.28;;;-141.04;100.00
19128;BME280;9696;53.686;10.094;2023-10-19T06:25:42;62107.28;;;-141.04;100.00
19128;BME280;9696;53.686;10.094;2023-10-19T06:28:11;62107.28;;;-141.04;100.00
19128;BME280;9696;53.686;10.094;2023-10-19T06:30:42;62107.28;;;-141.04;100.00
19128;BME280;9696;53.686;10.094;2023-10-19T06:33:11;62107.28;;;-141.04;100.00
19128;BME280;9696;53.686;10.094;2023-10-19T06:35:40;62107.28;;;-141.04;100.00
19128;BME280;9696;53.686;10.094;2023-10-19T06:38:09;62107.28;;;-141.04;100.00
19128;BME280;9696;53.686;10.094;2023-10-19T06:40:39;62107.28;;;-141.04;100.00
19128;BME280;9696;53.686;10.094;2023-10-19T06:43:08;62107.28;;;-141.04;100.00
19128;BME280;9696;53.686;10.094;2023-10-19T06:45:38;62107.28;;;-141.04;100.00
19128;BME280;9696;53.686;10.094;2023-10-19T06:48:09;62107.28;;;-141.04;100.00
19128;BME280;9696;53.686;10.094;2023-10-19T06:50:39;62107.28;;;-141.04;100.00
19128;BME280;9696;53.686;10.094;2023-10-19T06:53:12;62107.28;;;-141.04;100.00
19128;BME280;9696;53.686;10.094;2023-10-19T06:55:41;62107.28;;;-141.04;100.00
19128;BME280;9696;53.686;10.094;2023-10-19T06:58:11;62107.28;;;-141.04;100.00
19128;BME280;9696;53.686;10.094;2023-10-19T07:00:42;62107.28;;;-141.04;100.00
19128;BME280;9696;53.686;10.094;2023-10-19T07:03:16;62107.28;;;-141.04;100.00
19128;BME280;9696;53.686;10.094;2023-10-19T07:05:46;99753.75;;;7.01;100.00
19128;BME280;9696;53.686;10.094;2023-10-19T07:08:15;99755.38;;;6.92;100.00
19128;BME280;9696;53.686;10.094;2023-10-19T07:10:52;99749.63;;;6.89;100.00
19128;BME280;9696;53.686;10.094;2023-10-19T07:13:21;99753.03;;;6.89;100.00
19128;BME280;9696;53.686;10.094;2023-10-19T07:15:50;99755.94;;;6.96;100.00
19128;BME280;9696;53.686;10.094;2023-10-19T07:18:21;99758.66;;;6.85;100.00
19128;BME280;9696;53.686;10.094;2023-10-19T07:20:52;99753.09;;;7.08;100.00
19128;BME280;9696;53.686;10.094;2023-10-19T07:23:28;99761.13;;;6.86;100.00
19128;BME280;9696;53.686;10.094;2023-10-19T07:25:57;99755.09;;;6.95;100.00
19128;BME280;9696;53.686;10.094;2023-10-19T07:28:29;99757.69;;;6.86;100.00
19128;BME280;9696;53.686;10.094;2023-10-19T07:30:59;99761.69;;;6.90;100.00
19128;BME280;9696;53.686;10.094;2023-10-19T07:33:32;99755.94;;;6.86;100.00
19128;BME280;9696;53.686;10.094;2023-10-19T07:36:02;62107.28;;;-141.04;100.00
19128;BME280;9696;53.686;10.094;2023-10-19T07:38:36;62107.28;;;-141.04;100.00
19128;BME280;9696;53.686;10.094;2023-10-19T07:41:06;62107.28;;;-141.04;100.00
19128;BME280;9696;53.686;10.094;2023-10-19T07:43:36;62107.28;;;-141.04;100.00
19128;BME280;9696;53.686;10.094;2023-10-19T07:46:05;62107.28;;;-141.04;100.00
19128;BME280;9696;53.686;10.094;2023-10-19T07:48:37;62107.28;;;-141.04;100.00
19128;BME280;9696;53.686;10.094;2023-10-19T07:51:08;62107.28;;;-141.04;100.00
19128;BME280;9696;53.686;10.094;2023-10-19T07:53:39;62107.28;;;-141.04;100.00
19128;BME280;9696;53.686;10.094;2023-10-19T07:56:08;62107.28;;;-141.04;100.00
19128;BME280;9696;53.686;10.094;2023-10-19T07:58:37;62107.28;;;-141.04;100.00
19128;BME280;9696;53.686;10.094;2023-10-19T08:01:09;62107.28;;;-141.04;100.00
19128;BME280;9696;53.686;10.094;2023-10-19T08:03:41;62107.28;;;-141.04;100.00
19128;BME280;9696;53.686;10.094;2023-10-19T08:06:10;62107.28;;;-141.04;100.00
19128;BME280;9696;53.686;10.094;2023-10-19T08:08:39;62107.28;;;-141.04;100.00
19128;BME280;9696;53.686;10.094;2023-10-19T08:11:09;62107.28;;;-141.04;100.00
19128;BME280;9696;53.686;10.094;2023-10-19T08:13:40;62107.28;;;-141.04;100.00
19128;BME280;9696;53.686;10.094;2023-10-19T08:16:09;62107.28;;;-141.04;100.00
19128;BME280;9696;53.686;10.094;2023-10-19T08:18:41;62107.28;;;-141.04;100.00
19128;BME280;9696;53.686;10.094;2023-10-19T08:21:10;62107.28;;;-141.04;100.00
19128;BME280;9696;53.686;10.094;2023-10-19T08:23:40;62107.28;;;-141.04;100.00
19128;BME280;9696;53.686;10.094;2023-10-19T08:26:09;62107.28;;;-141.04;100.00
19128;BME280;9696;53.686;10.094;2023-10-19T08:28:39;62107.28;;;-141.04;100.00
19128;BME280;9696;53.686;10.094;2023-10-19T08:31:09;62107.28;;;-141.04;100.00
19128;BME280;9696;53.686;10.094;2023-10-19T08:33:40;62107.28;;;-141.04;100.00
19128;BME280;9696;53.686;10.094;2023-10-19T08:36:17;62107.28;;;-141.04;100.00
19128;BME280;9696;53.686;10.094;2023-10-19T08:38:47;62107.28;;;-141.04;100.00
19128;BME280;9696;53.686;10.094;2023-10-19T08:41:17;62107.28;;;-141.04;100.00
19128;BME280;9696;53.686;10.094;2023-10-19T08:43:48;62107.28;;;-141.04;100.00
19128;BME280;9696;53.686;10.094;2023-10-19T08:46:19;62107.28;;;-141.04;100.00
19128;BME280;9696;53.686;10.094;2023-10-19T08:48:49;62107.28;;;-141.04;100.00
19128;BME280;9696;53.686;10.094;2023-10-19T08:51:19;62107.28;;;-141.04;100.00
19128;BME280;9696;53.686;10.094;2023-10-19T08:53:48;62107.28;;;-141.04;100.00
19128;BME280;9696;53.686;10.094;2023-10-19T08:56:19;62107.28;;;-141.04;100.00
19128;BME280;9696;53.686;10.094;2023-10-19T08:58:51;62107.28;;;-141.04;100.00
19128;BME280;9696;53.686;10.094;2023-10-19T09:01:21;62107.28;;;-141.04;100.00
19128;BME280;9696;53.686;10.094;2023-10-19T09:03:53;62107.28;;;-141.04;100.00
19128;BME280;9696;53.686;10.094;2023-10-19T09:06:25;62107.28;;;-141.04;100.00
19128;BME280;9696;53.686;10.094;2023-10-19T09:08:56;62107.28;;;-141.04;100.00
19128;BME280;9696;53.686;10.094;2023-10-19T09:11:27;62107.28;;;-141.04;100.00
19128;BME280;9696;53.686;10.094;2023-10-19T09:13:56;62107.28;;;-141.04;100.00
19128;BME280;9696;53.686;10.094;2023-10-19T09:16:26;62107.28;;;-141.04;100.00
19128;BME280;9696;53.686;10.094;2023-10-19T09:19:00;62107.28;;;-141.04;100.00
19128;BME280;9696;53.686;10.094;2023-10-19T09:21:31;62107.28;;;-141.04;100.00
19128;BME280;9696;53.686;10.094;2023-10-19T09:24:01;62107.28;;;-141.04;100.00
19128;BME280;9696;53.686;10.094;2023-10-19T09:26:31;62107.28;;;-141.04;100.00
19128;BME280;9696;53.686;10.094;2023-10-19T09:29:00;62107.28;;;-141.04;100.00
19128;BME280;9696;53.686;10.094;2023-10-19T09:31:30;62107.28;;;-141.04;100.00
19128;BME280;9696;53.686;10.094;2023-10-19T09:34:01;62107.28;;;-141.04;100.00
19128;BME280;9696;53.686;10.094;2023-10-19T09:36:33;62107.28;;;-141.04;100.00
19128;BME280;9696;53.686;10.094;2023-10-19T09:39:03;62107.28;;;-141.04;100.00
19128;BME280;9696;53.686;10.094;2023-10-19T09:41:32;62107.28;;;-141.04;100.00
19128;BME280;9696;53.686;10.094;2023-10-19T09:44:05;62107.28;;;-141.04;100.00
19128;BME280;9696;53.686;10.094;2023-10-19T09:46:39;62107.28;;;-141.04;100.00
19128;BME280;9696;53.686;10.094;2023-10-19T09:49:11;62107.28;;;-141.04;100.00
19128;BME280;9696;53.686;10.094;2023-10-19T09:51:42;62107.28;;;-141.04;100.00
19128;BME280;9696;53.686;10.094;2023-10-19T09:54:38;62107.28;;;-141.04;100.00
19128;BME280;9696;53.686;10.094;2023-10-19T09:57:12;62107.28;;;-141.04;100.00
19128;BME280;9696;53.686;10.094;2023-10-19T09:59:46;62107.28;;;-141.04;100.00
19128;BME280;9696;53.686;10.094;2023-10-19T10:02:20;62107.28;;;-141.04;100.00
19128;BME280;9696;53.686;10.094;2023-10-19T10:04:55;62107.28;;;-141.04;100.00
19128;BME280;9696;53.686;10.094;2023-10-19T10:07:25;62107.28;;;-141.04;100.00
19128;BME280;9696;53.686;10.094;2023-10-19T10:10:09;62107.28;;;-141.04;100.00
19128;BME280;9696;53.686;10.094;2023-10-19T10:12:38;62107.28;;;-141.04;100.00
19128;BME280;9696;53.686;10.094;2023-10-19T10:15:07;62107.28;;;-141.04;100.00
19128;BME280;9696;53.686;10.094;2023-10-19T10:17:39;62107.28;;;-141.04;100.00
19128;BME280;9696;53.686;10.094;2023-10-19T10:20:32;62107.28;;;-141.04;100.00
19128;BME280;9696;53.686;10.094;2023-10-19T10:23:19;62107.28;;;-141.04;100.00
19128;BME280;9696;53.686;10.094;2023-10-19T10:25:52;62107.28;;;-141.04;100.00
19128;BME280;9696;53.686;10.094;2023-10-19T10:28:22;62107.28;;;-141.04;100.00
19128;BME280;9696;53.686;10.094;2023-10-19T10:31:11;62107.28;;;-141.04;100.00
19128;BME280;9696;53.686;10.094;2023-10-19T10:33:46;62107.28;;;-141.04;100.00
19128;BME280;9696;53.686;10.094;2023-10-19T10:36:19;62107.28;;;-141.04;100.00
19128;BME280;9696;53.686;10.094;2023-10-19T10:38:50;62107.28;;;-141.04;100.00
19128;BME280;9696;53.686;10.094;2023-10-19T10:41:24;62107.28;;;-141.04;100.00
19128;BME280;9696;53.686;10.094;2023-10-19T10:43:57;62107.28;;;-141.04;100.00
19128;BME280;9696;53.686;10.094;2023-10-19T10:46:27;62107.28;;;-141.04;100.00
19128;BME280;9696;53.686;10.094;2023-10-19T10:48:57;62107.28;;;-141.04;100.00
19128;BME280;9696;53.686;10.094;2023-10-19T10:51:28;62107.28;;;-141.04;100.00
19128;BME280;9696;53.686;10.094;2023-10-19T10:53:58;62107.28;;;-141.04;100.00
19128;BME280;9696;53.686;10.094;2023-10-19T10:56:27;62107.28;;;-141.04;100.00
19128;BME280;9696;53.686;10.094;2023-10-19T10:58:56;62107.28;;;-141.04;100.00
19128;BME280;9696;53.686;10.094;2023-10-19T11:01:29;62107.28;;;-141.04;100.00
19128;BME280;9696;53.686;10.094;2023-10-19T11:04:07;62107.28;;;-141.04;100.00
19128;BME280;9696;53.686;10.094;2023-10-19T11:06:48;62107.28;;;-141.04;100.00
19128;BME280;9696;53.686;10.094;2023-10-19T11:09:18;62107.28;;;-141.04;100.00
19128;BME280;9696;53.686;10.094;2023-10-19T11:11:47;62107.28;;;-141.04;100.00
19128;BME280;9696;53.686;10.094;2023-10-19T11:14:20;62107.28;;;-141.04;100.00
19128;BME280;9696;53.686;10.094;2023-10-19T11:16:51;62107.28;;;-141.04;100.00
19128;BME280;9696;53.686;10.094;2023-10-19T11:19:21;62107.28;;;-141.04;100.00
19128;BME280;9696;53.686;10.094;2023-10-19T11:21:55;62107.28;;;-141.04;100.00
19128;BME280;9696;53.686;10.094;2023-10-19T11:24:27;62107.28;;;-141.04;100.00
19128;BME280;9696;53.686;10.094;2023-10-19T11:27:02;62107.28;;;-141.04;100.00
19128;BME280;9696;53.686;10.094;2023-10-19T11:29:31;62107.28;;;-141.04;100.00
19128;BME280;9696;53.686;10.094;2023-10-19T11:32:01;62107.28;;;-141.04;100.00
19128;BME280;9696;53.686;10.094;2023-10-19T11:34:31;62107.28;;;-141.04;100.00
19128;BME280;9696;53.686;10.094;2023-10-19T11:37:04;62107.28;;;-141.04;100.00
19128;BME280;9696;53.686;10.094;2023-10-19T11:39:34;62107.28;;;-141.04;100.00
19128;BME280;9696;53.686;10.094;2023-10-19T11:42:03;62107.28;;;-141.04;100.00
19128;BME280;9696;53.686;10.094;2023-10-19T11:44:32;62107.28;;;-141.04;100.00
19128;BME280;9696;53.686;10.094;2023-10-19T11:47:02;62107.28;;;-141.04;100.00
19128;BME280;9696;53.686;10.094;2023-10-19T11:49:31;62107.28;;;-141.04;100.00
19128;BME280;9696;53.686;10.094;2023-10-19T11:52:05;62107.28;;;-141.04;100.00
19128;BME280;9696;53.686;10.094;2023-10-19T11:54:35;62107.28;;;-141.04;100.00
19128;BME280;9696;53.686;10.094;2023-10-19T11:57:07;62107.28;;;-141.04;100.00
19128;BME280;9696;53.686;10.094;2023-10-19T11:59:36;62107.28;;;-141.04;100.00
19128;BME280;9696;53.686;10.094;2023-10-19T12:02:05;62107.28;;;-141.04;100.00
19128;BME280;9696;53.686;10.094;2023-10-19T12:04:35;62107.28;;;-141.04;100.00
19128;BME280;9696;53.686;10.094;2023-10-19T12:07:05;62107.28;;;-141.04;100.00
19128;BME280;9696;53.686;10.094;2023-10-19T12:09:37;62107.28;;;-141.04;100.00
19128;BME280;9696;53.686;10.094;2023-10-19T12:12:09;62107.28;;;-141.04;100.00
19128;BME280;9696;53.686;10.094;2023-10-19T12:14:38;62107.28;;;-141.04;100.00
19128;BME280;9696;53.686;10.094;2023-10-19T12:17:07;62107.28;;;-141.04;100.00
19128;BME280;9696;53.686;10.094;2023-10-19T12:19:37;62107.28;;;-141.04;100.00
19128;BME280;9696;53.686;10.094;2023-10-19T12:22:07;62107.28;;;-141.04;100.00
19128;BME280;9696;53.686;10.094;2023-10-19T12:24:37;62107.28;;;-141.04;100.00
19128;BME280;9696;53.686;10.094;2023-10-19T12:27:06;62107.28;;;-141.04;100.00
19128;BME280;9696;53.686;10.094;2023-10-19T12:29:36;62107.28;;;-141.04;100.00
19128;BME280;9696;53.686;10.094;2023-10-19T12:32:05;62107.28;;;-141.04;100.00
19128;BME280;9696;53.686;10.094;2023-10-19T12:34:35;62107.28;;;-141.04;100.00
19128;BME280;9696;53.686;10.094;2023-10-19T12:37:04;62107.28;;;-141.04;100.00
19128;BME280;9696;53.686;10.094;2023-10-19T12:39:37;62107.28;;;-141.04;100.00
19128;BME280;9696;53.686;10.094;2023-10-19T12:42:11;62107.28;;;-141.04;100.00
19128;BME280;9696;53.686;10.094;2023-10-19T12:44:42;62107.28;;;-141.04;100.00
19128;BME280;9696;53.686;10.094;2023-10-19T12:47:15;62107.28;;;-141.04;100.00
19128;BME280;9696;53.686;10.094;2023-10-19T12:49:45;62107.28;;;-141.04;100.00
19128;BME280;9696;53.686;10.094;2023-10-19T12:52:16;62107.28;;;-141.04;100.00
19128;BME280;9696;53.686;10.094;2023-10-19T12:54:46;62107.28;;;-141.04;100.00
19128;BME280;9696;53.686;10.094;2023-10-19T12:57:19;62107.28;;;-141.04;100.00
19128;BME280;9696;53.686;10.094;2023-10-19T12:59:48;62107.28;;;-141.04;100.00